Time;durP1;ratioP1;P1;durP2;ratioP2;P2;SDS_P1;SDS_P2;PMS_P1;PMS_P2;Temp;Humidity;BMP_temperature;BMP_pressure;BME280_temperature;BME280_humidity;BME280_pressure;Samples;Min_cycle;Max_cycle;Signal;HPM_P1;HPM_P2
2021/06/21 00:02:25;;;;;;;10.07;7.63;;;;;;;19.69;72.16;100196.28;5132717;28;20412;-71
2021/06/21 00:04:55;;;;;;;16.48;7.72;;;;;;;19.59;72.52;100206.31;5132907;28;20040;-73
2021/06/21 00:07:21;;;;;;;13.55;7.63;;;;;;;19.54;72.70;100204.97;5114186;28;20609;-72
2021/06/21 00:09:47;;;;;;;12.40;7.35;;;;;;;19.55;72.79;100201.28;5132749;28;20047;-73
2021/06/21 00:12:15;;;;;;;14.48;7.15;;;;;;;19.53;72.98;100203.28;5132719;28;20039;-71
2021/06/21 00:14:45;;;;;;;14.38;7.78;;;;;;;19.52;73.06;100209.66;5132866;28;20051;-72
2021/06/21 00:17:10;;;;;;;14.30;8.30;;;;;;;19.50;73.36;100205.47;5132787;28;20050;-72
2021/06/21 00:19:36;;;;;;;12.88;7.30;;;;;;;19.46;73.52;100207.63;5132475;28;20135;-71
2021/06/21 00:22:04;;;;;;;12.32;8.07;;;;;;;19.41;73.57;100209.97;5132617;28;20071;-72
2021/06/21 00:24:31;;;;;;;15.73;8.23;;;;;;;19.38;73.74;100204.94;5097350;28;20043;-71
2021/06/21 00:27:08;;;;;;;11.60;7.80;;;;;;;19.33;73.97;100208.09;5132602;28;20046;-73
2021/06/21 00:29:34;;;;;;;13.95;8.50;;;;;;;19.29;74.11;100203.22;5132315;28;20399;-69
2021/06/21 00:32:00;;;;;;;13.18;7.72;;;;;;;19.27;74.37;100202.56;5132592;28;20038;-72
2021/06/21 00:34:26;;;;;;;11.90;8.38;;;;;;;19.24;74.42;100212.59;5114394;28;20520;-73
2021/06/21 00:36:52;;;;;;;18.58;8.82;;;;;;;19.23;74.52;100213.59;5132308;28;20046;-74
2021/06/21 00:39:18;;;;;;;13.02;7.95;;;;;;;19.21;74.66;100212.91;5132297;28;20051;-70
2021/06/21 00:41:43;;;;;;;13.90;8.82;;;;;;;19.17;74.68;100214.22;5132205;28;20084;-71
2021/06/21 00:44:10;;;;;;;18.10;8.35;;;;;;;19.13;74.84;100212.88;5132209;27;20115;-71
2021/06/21 00:46:36;;;;;;;16.13;8.60;;;;;;;19.08;75.01;100215.22;5134268;27;20472;-72
2021/06/21 00:49:02;;;;;;;14.65;8.07;;;;;;;19.08;75.07;100221.41;5136690;27;20047;-72
2021/06/21 00:51:28;;;;;;;13.13;8.52;;;;;;;19.09;75.20;100222.25;5136392;27;20503;-72
2021/06/21 00:53:54;;;;;;;12.13;8.40;;;;;;;19.09;75.07;100216.91;5134889;27;20163;-72
2021/06/21 00:56:20;;;;;;;14.75;9.02;;;;;;;19.09;75.24;100214.22;5136005;27;20496;-71
2021/06/21 00:58:46;;;;;;;17.50;9.35;;;;;;;19.08;75.44;100215.22;5117260;27;20043;-73
2021/06/21 01:01:12;;;;;;;12.82;8.13;;;;;;;19.07;75.49;100213.53;5135913;27;20039;-71
2021/06/21 01:03:38;;;;;;;14.43;8.55;;;;;;;19.06;75.46;100214.53;5135578;27;20046;-71
2021/06/21 01:06:03;;;;;;;13.13;8.68;;;;;;;19.01;75.30;100211.47;5134792;27;20039;-74
2021/06/21 01:08:30;;;;;;;13.70;8.57;;;;;;;18.95;75.29;100214.81;5135886;27;20035;-72
2021/06/21 01:10:57;;;;;;;17.80;8.90;;;;;;;18.90;75.24;100213.44;5134529;27;20039;-71
2021/06/21 01:13:56;;;;;;;13.35;9.07;;;;;;;18.92;75.45;100210.59;5134761;27;20362;-70
2021/06/21 01:16:41;;;;;;;15.40;8.82;;;;;;;18.92;75.30;100206.06;5135578;27;20411;-71
2021/06/21 01:19:22;;;;;;;16.48;9.20;;;;;;;18.95;75.15;100210.28;5135577;27;20043;-69
2021/06/21 01:22:07;;;;;;;14.35;9.05;;;;;;;18.98;75.04;100219.84;5134296;27;20627;-72
2021/06/21 01:24:40;;;;;;;21.13;9.82;;;;;;;18.98;74.95;100214.47;5134362;27;20043;-69
2021/06/21 01:27:12;;;;;;;14.55;8.98;;;;;;;18.96;75.21;100208.44;5133584;27;20045;-73
2021/06/21 01:29:54;;;;;;;14.23;8.80;;;;;;;18.95;75.22;100206.75;5135070;27;20427;-71
2021/06/21 01:32:33;;;;;;;12.43;9.10;;;;;;;18.91;75.09;100204.38;5103697;27;20054;-72
2021/06/21 01:35:00;;;;;;;14.15;8.88;;;;;;;18.89;74.99;100211.72;5096457;28;20506;-71
2021/06/21 01:37:28;;;;;;;22.50;9.38;;;;;;;18.86;75.07;100212.03;5096648;28;20070;-71
2021/06/21 01:39:56;;;;;;;13.43;9.35;;;;;;;18.86;75.01;100213.88;5096495;28;20050;-73
2021/06/21 01:42:23;;;;;;;17.65;8.93;;;;;;;18.84;75.09;100216.72;5096617;28;20048;-70
2021/06/21 01:44:57;;;;;;;13.60;8.88;;;;;;;18.88;75.31;100223.44;5127961;27;20077;-73
2021/06/21 01:47:24;;;;;;;16.13;8.88;;;;;;;18.92;75.22;100215.97;5133920;27;20129;-73
2021/06/21 01:49:51;;;;;;;15.77;8.73;;;;;;;18.96;75.08;100222.69;5133832;27;20047;-73
2021/06/21 01:52:18;;;;;;;14.95;8.93;;;;;;;19.02;75.08;100213.16;5133746;27;20058;-72
2021/06/21 01:54:49;;;;;;;21.20;9.65;;;;;;;19.06;75.20;100218.03;5133317;27;20105;-71
2021/06/21 01:57:20;;;;;;;14.65;8.98;;;;;;;19.12;74.85;100219.25;5134887;27;20391;-75
2021/06/21 01:59:48;;;;;;;13.00;8.77;;;;;;;19.17;74.75;100224.13;5134218;27;20612;-71
2021/06/21 02:02:14;;;;;;;13.57;8.82;;;;;;;19.22;74.46;100227.16;5101414;27;20047;-68
2021/06/21 02:04:41;;;;;;;13.55;8.63;;;;;;;19.28;74.23;100222.97;5098407;27;20039;-70
2021/06/21 02:07:07;;;;;;;16.67;9.88;;;;;;;19.34;73.97;100225.88;5134023;27;20122;-71
2021/06/21 02:09:34;;;;;;;14.52;9.57;;;;;;;19.37;73.80;100224.72;5116335;27;20042;-71
2021/06/21 02:12:00;;;;;;;13.88;9.57;;;;;;;19.42;73.98;100227.75;5116189;27;20121;-71
2021/06/21 02:14:29;;;;;;;14.98;9.18;;;;;;;19.47;73.65;100228.09;5116432;27;20527;-71
2021/06/21 02:16:56;;;;;;;12.07;9.18;;;;;;;19.48;73.47;100224.41;5134259;27;20086;-72
2021/06/21 02:19:27;;;;;;;12.95;9.05;;;;;;;19.50;73.48;100222.41;5106966;27;20100;-71
2021/06/21 02:21:53;;;;;;;13.27;9.80;;;;;;;19.48;73.41;100221.72;5125650;27;20503;-71
2021/06/21 02:24:19;;;;;;;19.73;10.05;;;;;;;19.44;73.68;100223.06;5097027;28;20039;-70
2021/06/21 02:26:49;;;;;;;18.70;10.45;;;;;;;19.44;73.92;100224.88;5095425;28;20163;-72
2021/06/21 02:29:18;;;;;;;15.32;10.43;;;;;;;19.44;74.10;100231.13;5113580;28;20137;-73
2021/06/21 02:31:45;;;;;;;17.85;10.43;;;;;;;19.50;73.91;100230.47;5078924;28;20051;-72
2021/06/21 02:34:11;;;;;;;17.13;10.40;;;;;;;19.54;73.78;100222.94;5110473;27;20039;-70
2021/06/21 02:36:37;;;;;;;19.33;10.27;;;;;;;19.53;73.93;100222.06;5133941;27;20043;-70
2021/06/21 02:39:05;;;;;;;19.00;10.60;;;;;;;19.52;74.17;100228.44;5128528;27;20065;-69
2021/06/21 02:41:31;;;;;;;22.05;11.77;;;;;;;19.55;74.27;100221.91;5110367;27;20047;-71
2021/06/21 02:43:57;;;;;;;22.00;12.18;;;;;;;19.60;74.42;100226.78;5133870;27;20047;-71
2021/06/21 02:46:22;;;;;;;19.88;12.95;;;;;;;19.62;74.40;100222.09;5132955;27;20514;-70
2021/06/21 02:48:48;;;;;;;18.85;12.93;;;;;;;19.66;74.49;100224.28;5131638;27;20047;-71
2021/06/21 02:51:18;;;;;;;15.95;12.32;;;;;;;19.71;74.18;100221.09;5103613;27;20035;-73
2021/06/21 02:54:00;;;;;;;20.58;13.15;;;;;;;19.77;74.02;100225.81;5133372;27;20046;-69
2021/06/21 02:56:41;;;;;;;21.70;14.20;;;;;;;19.84;73.67;100224.19;5104756;27;20039;-73
2021/06/21 02:59:13;;;;;;;21.60;13.10;;;;;;;19.93;73.58;100221.53;5133756;27;20066;-72
2021/06/21 03:01:49;;;;;;;25.92;16.50;;;;;;;19.98;72.32;100224.53;5124769;27;20040;-71
2021/06/21 03:04:15;;;;;;;21.85;15.35;;;;;;;20.03;71.74;100223.03;5087693;27;20036;-71
2021/06/21 03:06:45;;;;;;;23.80;15.77;;;;;;;20.10;71.32;100220.53;5094894;28;20062;-73
2021/06/21 03:09:12;;;;;;;22.40;18.13;;;;;;;20.16;70.63;100229.75;5116573;27;20042;-73
2021/06/21 03:11:39;;;;;;;24.37;18.97;;;;;;;20.24;69.88;100231.59;5121514;27;20035;-71
2021/06/21 03:14:05;;;;;;;31.85;19.95;;;;;;;20.33;69.65;100233.28;5114253;27;20375;-73
2021/06/21 03:16:32;;;;;;;33.05;21.08;;;;;;;20.39;68.98;100235.31;5114877;27;20376;-72
2021/06/21 03:18:58;;;;;;;30.17;22.35;;;;;;;20.44;68.90;100235.63;5132825;27;20171;-73
2021/06/21 03:21:24;;;;;;;33.35;24.13;;;;;;;20.55;68.68;100242.50;5133501;27;20179;-72
2021/06/21 03:23:52;;;;;;;38.70;26.13;;;;;;;20.60;68.56;100241.97;5114652;27;20126;-74
2021/06/21 03:26:17;;;;;;;34.42;24.38;;;;;;;20.68;68.51;100250.03;5132558;27;20227;-72
2021/06/21 03:28:43;;;;;;;34.65;24.00;;;;;;;20.71;68.55;100244.38;5114103;27;20053;-73
2021/06/21 03:31:09;;;;;;;31.92;24.15;;;;;;;20.75;68.22;100245.72;5132596;27;20138;-74
2021/06/21 03:33:36;;;;;;;29.17;23.25;;;;;;;20.83;68.28;100242.16;5114957;27;20129;-71
2021/06/21 03:36:04;;;;;;;32.43;22.07;;;;;;;20.99;68.32;100243.97;5133219;27;20062;-73
2021/06/21 03:38:30;;;;;;;35.60;28.48;;;;;;;21.03;67.62;100247.97;5114673;27;20054;-74
2021/06/21 03:40:58;;;;;;;37.08;28.15;;;;;;;21.09;66.96;100251.84;5131331;27;20035;-73
2021/06/21 03:43:25;;;;;;;36.63;29.23;;;;;;;21.15;66.26;100246.59;5132545;27;20034;-71
2021/06/21 03:45:53;;;;;;;40.30;28.00;;;;;;;21.24;66.16;100244.72;5132721;27;20122;-73
2021/06/21 03:48:20;;;;;;;39.58;27.10;;;;;;;21.31;65.79;100256.47;5133246;27;20421;-72
2021/06/21 03:50:47;;;;;;;33.30;26.33;;;;;;;21.37;65.21;100254.94;5131024;27;20166;-71
2021/06/21 03:53:15;;;;;;;36.42;27.13;;;;;;;21.48;65.29;100257.25;5132626;27;20285;-71
2021/06/21 03:55:40;;;;;;;;;;;;;;;22.46;62.97;100254.13;5129518;27;20067;-72
2021/06/21 03:58:06;;;;;;;26.85;22.42;;;;;;;24.46;57.70;100248.72;5094047;28;19963;-74
2021/06/21 04:00:34;;;;;;;29.42;20.95;;;;;;;26.10;51.62;100249.19;5121819;27;20447;-73
2021/06/21 04:03:00;;;;;;;;;;;;;;;27.20;49.00;100254.09;5132768;27;20424;-73
2021/06/21 04:05:26;;;;;;;28.55;18.23;;;;;;;28.24;45.54;100248.59;5129223;27;19919;-74
2021/06/21 04:07:53;;;;;;;22.05;17.65;;;;;;;29.09;43.55;100250.97;5114311;28;20047;-73
2021/06/21 04:10:21;;;;;;;24.70;18.63;;;;;;;29.67;41.78;100255.09;5129389;27;20040;-73
2021/06/21 04:12:48;;;;;;;24.08;18.92;;;;;;;30.27;40.34;100253.38;5112179;28;20708;-74
2021/06/21 04:15:15;;;;;;;25.27;17.88;;;;;;;30.95;39.50;100251.19;5112112;28;20040;-74
2021/06/21 04:17:42;;;;;;;24.33;17.75;;;;;;;31.77;38.40;100250.16;5112911;28;20044;-73
2021/06/21 04:20:13;;;;;;;29.50;17.90;;;;;;;32.93;36.21;100254.53;5132693;27;20031;-71
2021/06/21 04:22:39;;;;;;;21.35;17.65;;;;;;;33.61;34.88;100255.13;5136376;27;20099;-73
2021/06/21 04:25:08;;;;;;;25.52;17.45;;;;;;;33.59;34.50;100251.78;5136370;27;20579;-72
2021/06/21 04:27:35;;;;;;;24.35;16.55;;;;;;;33.77;34.50;100255.28;5135621;27;20046;-72
2021/06/21 04:30:04;;;;;;;22.27;15.57;;;;;;;34.02;33.75;100255.56;5135471;27;20051;-71
2021/06/21 04:32:29;;;;;;;19.58;14.90;;;;;;;34.20;33.49;100250.75;5133940;27;20039;-74
2021/06/21 04:34:55;;;;;;;21.00;14.43;;;;;;;34.73;32.51;100247.31;5135767;27;20404;-73
2021/06/21 04:37:21;;;;;;;18.07;13.50;;;;;;;34.78;31.82;100255.56;5136334;27;20250;-74
2021/06/21 04:39:47;;;;;;;21.70;14.27;;;;;;;35.43;31.68;100244.38;5135759;27;20027;-71
2021/06/21 04:42:12;;;;;;;13.27;11.30;;;;;;;35.89;30.25;100247.25;5136369;27;20125;-72
2021/06/21 04:44:38;;;;;;;10.73;8.90;;;;;;;35.76;29.18;100247.75;5136212;27;20609;-71
2021/06/21 04:47:04;;;;;;;13.52;8.90;;;;;;;35.81;28.89;100244.19;5135995;27;20144;-70
2021/06/21 04:49:30;;;;;;;10.40;7.77;;;;;;;35.89;28.58;100249.16;5136024;27;20043;-71
2021/06/21 04:51:57;;;;;;;8.87;6.60;;;;;;;36.46;27.52;100247.25;5136107;27;20039;-75
2021/06/21 04:54:23;;;;;;;12.50;6.95;;;;;;;36.85;26.37;100252.19;5136429;27;20107;-73
2021/06/21 04:56:49;;;;;;;7.97;5.03;;;;;;;37.37;25.34;100255.59;5136082;27;20510;-72
2021/06/21 04:59:14;;;;;;;3.83;3.07;;;;;;;37.79;23.63;100258.91;5135876;27;20111;-73
2021/06/21 05:01:40;;;;;;;9.23;4.57;;;;;;;38.60;23.16;100254.97;5136268;27;20475;-75
2021/06/21 05:04:06;;;;;;;11.88;6.13;;;;;;;38.95;23.19;100251.00;5136049;27;20046;-72
2021/06/21 05:06:33;;;;;;;;;;;;;;;39.86;22.55;100252.00;5136326;27;20441;-74
2021/06/21 05:08:59;;;;;;;10.98;4.90;;;;;;;40.44;21.26;100250.78;5136139;27;19991;-72
2021/06/21 05:11:25;;;;;;;7.32;4.93;;;;;;;40.32;21.57;100247.69;5135796;27;20096;-78
2021/06/21 05:13:51;;;;;;;9.95;5.53;;;;;;;40.39;22.09;100248.09;5135448;27;20049;-72
2021/06/21 05:16:17;;;;;;;8.05;5.55;;;;;;;41.14;21.54;100255.56;5134056;27;20058;-76
2021/06/21 05:18:43;;;;;;;11.88;5.75;;;;;;;41.40;21.18;100256.66;5135960;27;20040;-79
2021/06/21 05:21:08;;;;;;;11.30;5.97;;;;;;;41.77;21.04;100253.06;5135350;27;20138;-74
2021/06/21 05:23:34;;;;;;;11.40;6.32;;;;;;;41.85;21.30;100250.41;5136061;27;20472;-74
2021/06/21 05:26:00;;;;;;;13.18;6.00;;;;;;;40.91;22.20;100258.22;5135838;27;20104;-74
2021/06/21 05:28:25;;;;;;;11.20;5.82;;;;;;;40.79;22.10;100253.22;5135893;27;20043;-73
2021/06/21 05:30:51;;;;;;;9.75;5.15;;;;;;;40.24;22.03;100251.97;5135689;27;20564;-75
2021/06/21 05:33:17;;;;;;;7.18;3.78;;;;;;;39.25;22.07;100245.41;5134387;27;20457;-75
2021/06/21 05:35:43;;;;;;;7.57;3.60;;;;;;;38.63;22.53;100255.22;5135476;27;20498;-72
2021/06/21 05:38:09;;;;;;;13.25;4.28;;;;;;;38.70;22.56;100254.84;5135450;27;20047;-74
2021/06/21 05:40:35;;;;;;;5.45;4.07;;;;;;;38.42;22.74;100260.13;5135422;27;20051;-72
2021/06/21 05:43:01;;;;;;;7.05;4.90;;;;;;;38.78;22.97;100261.72;5134046;27;20369;-75
2021/06/21 05:45:27;;;;;;;9.85;4.55;;;;;;;38.20;23.91;100263.34;5135177;27;20039;-74
2021/06/21 05:47:53;;;;;;;11.07;3.83;;;;;;;37.44;24.69;100257.22;5116858;27;20038;-72
2021/06/21 05:50:19;;;;;;;7.47;4.53;;;;;;;37.55;24.71;100265.13;5134675;27;20070;-77
2021/06/21 05:52:49;;;;;;;6.38;3.95;;;;;;;38.33;23.45;100256.31;5135288;27;20058;-73
2021/06/21 05:55:18;;;;;;;6.82;3.50;;;;;;;39.48;21.56;100252.84;5135019;27;20054;-74
2021/06/21 05:57:44;;;;;;;7.70;3.13;;;;;;;40.60;20.07;100242.19;5117337;27;20054;-77
2021/06/21 06:00:11;;;;;;;8.43;3.47;;;;;;;40.65;20.05;100244.84;5135088;27;20709;-74
2021/06/21 06:02:37;;;;;;;7.57;3.20;;;;;;;41.70;18.73;100248.78;5134696;27;20111;-75
2021/06/21 06:05:04;;;;;;;9.20;3.15;;;;;;;42.64;18.20;100245.28;5115882;27;20096;-72
2021/06/21 06:07:30;;;;;;;10.75;3.10;;;;;;;41.74;18.92;100250.91;5134475;27;20039;-76
2021/06/21 06:09:57;;;;;;;5.85;1.92;;;;;;;41.75;17.65;100241.44;5116422;27;20355;-79
2021/06/21 06:12:24;;;;;;;5.38;2.25;;;;;;;42.19;17.70;100245.38;5134944;27;20400;-76
2021/06/21 06:14:52;;;;;;;4.68;2.40;;;;;;;41.94;17.93;100244.91;5134745;27;20050;-77
2021/06/21 06:17:18;;;;;;;6.35;2.58;;;;;;;42.40;17.48;100244.84;5134798;27;20182;-75
2021/06/21 06:19:44;;;;;;;;;;;;;;;42.62;17.26;100241.19;5135083;27;20080;-73
2021/06/21 06:22:11;;;;;;;9.80;3.08;;;;;;;42.43;18.05;100250.59;5134448;27;19919;-74
2021/06/21 06:24:37;;;;;;;6.80;3.33;;;;;;;42.51;18.05;100251.81;5134655;27;20035;-73
2021/06/21 06:27:04;;;;;;;6.60;2.65;;;;;;;42.79;18.02;100243.25;5134423;27;20043;-78
2021/06/21 06:29:32;;;;;;;6.45;2.60;;;;;;;41.67;18.57;100245.81;5116527;27;20122;-79
2021/06/21 06:31:58;;;;;;;6.07;2.60;;;;;;;41.41;18.57;100246.34;5133990;27;20047;-74
2021/06/21 06:34:24;;;;;;;;;;;;;;;40.59;19.96;100240.56;5135288;27;20495;-76
2021/06/21 06:36:51;;;;;;;7.78;3.70;;;;;;;41.64;18.94;100240.91;5134249;27;19919;-78
2021/06/21 06:39:17;;;;;;;6.38;3.63;;;;;;;42.29;18.71;100242.34;5115680;27;20050;-76
2021/06/21 06:41:42;;;;;;;;;;;;;;;42.79;18.22;100248.81;5134706;27;20039;-78
2021/06/21 06:44:09;;;;;;;5.95;3.53;;;;;;;42.24;19.26;100239.69;5133242;27;20284;-77
2021/06/21 06:46:34;;;;;;;;;;;;;;;43.73;17.35;100242.13;5134146;27;20046;-75
2021/06/21 06:49:00;;;;;;;10.77;3.53;;;;;;;43.40;17.47;100239.81;5134169;27;19915;-79
2021/06/21 06:51:30;;;;;;;6.05;2.97;;;;;;;42.96;17.99;100234.97;5132908;27;20043;-78
2021/06/21 06:54:04;;;;;;;5.35;2.70;;;;;;;42.33;18.96;100229.44;5134129;27;20039;-79
2021/06/21 06:59:15;;;;;;;7.75;2.42;;;;;;;42.79;18.32;100234.91;5133664;27;20098;-76
2021/06/21 07:01:42;;;;;;;8.52;2.78;;;;;;;44.53;17.10;100222.13;5133833;27;20047;-76
2021/06/21 07:04:08;;;;;;;6.38;2.13;;;;;;;43.04;17.08;100226.97;5134035;27;20515;-82
2021/06/21 07:06:33;;;;;;;5.28;1.90;;;;;;;42.93;17.34;100230.06;5132095;27;20043;-78
2021/06/21 07:08:59;;;;;;;4.25;1.67;;;;;;;42.63;16.94;100226.97;5132510;27;20057;-82
2021/06/21 07:11:26;;;;;;;2.42;1.70;;;;;;;42.40;17.50;100233.72;5132767;27;20130;-77
2021/06/21 07:13:52;;;;;;;2.05;1.40;;;;;;;42.03;18.04;100231.06;5132820;27;20071;-79
2021/06/21 07:16:18;;;;;;;3.97;1.83;;;;;;;41.34;18.87;100229.34;5134032;27;20073;-82
2021/06/21 07:18:44;;;;;;;;;;;;;;;41.99;18.70;100228.09;5134921;27;20047;-76
2021/06/21 07:21:09;;;;;;;4.80;2.00;;;;;;;41.53;18.07;100229.19;5133759;27;19919;-77
2021/06/21 07:23:35;;;;;;;;;;;;;;;41.42;18.01;100238.88;5134647;27;20050;-77
2021/06/21 07:26:01;;;;;;;5.55;2.25;;;;;;;41.91;17.95;100234.44;5133501;27;20295;-78
2021/06/21 07:28:27;;;;;;;;;;;;;;;42.77;17.24;100226.06;5134861;27;20050;-77
2021/06/21 07:30:52;;;;;;;6.20;2.22;;;;;;;42.95;17.12;100238.88;5133758;27;20019;-76
2021/06/21 07:33:18;;;;;;;;;;;;;;;42.74;17.18;100233.09;5133910;27;20039;-73
2021/06/21 07:35:44;;;;;;;5.13;1.80;;;;;;;42.61;17.29;100229.25;5133576;27;20400;-75
2021/06/21 07:38:10;;;;;;;;;;;;;;;41.62;18.30;100229.25;5133899;27;20043;-78
2021/06/21 07:40:37;;;;;;;5.72;2.03;;;;;;;41.05;18.62;100219.41;5133124;27;19923;-73
2021/06/21 07:43:04;;;;;;;3.05;1.90;;;;;;;42.31;17.80;100228.97;5133334;27;20038;-77
2021/06/21 07:45:29;;;;;;;9.18;2.20;;;;;;;42.56;17.35;100237.75;5133204;27;20043;-78
2021/06/21 07:47:58;;;;;;;;;;;;;;;41.96;17.96;100225.97;5133881;27;20039;-77
2021/06/21 07:50:27;;;;;;;6.20;2.20;;;;;;;41.66;18.24;100233.88;5133406;27;20319;-76
2021/06/21 07:52:54;;;;;;;9.88;8.55;;;;;;;41.11;18.64;100225.66;5133498;27;20042;-75
2021/06/21 07:55:24;;;;;;;5.78;1.98;;;;;;;40.72;19.25;100234.19;5133000;27;20047;-75
2021/06/21 07:57:51;;;;;;;3.13;1.70;;;;;;;40.26;19.42;100233.06;5133454;27;20127;-79
2021/06/21 08:00:19;;;;;;;4.28;2.10;;;;;;;40.38;19.15;100235.38;5132769;27;20059;-75
2021/06/21 08:02:46;;;;;;;5.13;2.00;;;;;;;40.83;18.45;100234.00;5133153;27;20126;-80
2021/06/21 08:05:11;;;;;;;;;;;;;;;40.99;19.08;100245.59;5114984;28;20118;-73
2021/06/21 08:07:37;;;;;;;4.47;2.05;;;;;;;41.20;18.10;100243.22;5114733;28;19915;-73
2021/06/21 08:10:04;;;;;;;3.40;1.90;;;;;;;41.15;17.80;100240.56;5133015;27;20035;-80
2021/06/21 08:12:30;;;;;;;3.85;2.35;;;;;;;41.31;18.14;100241.03;5133003;28;20438;-81
2021/06/21 08:14:56;;;;;;;;;;;;;;;41.99;17.66;100235.63;5133715;28;20058;-78
2021/06/21 08:17:21;;;;;;;7.80;2.20;;;;;;;42.68;17.10;100226.84;5133201;28;19915;-77
2021/06/21 08:19:47;;;;;;;;;;;;;;;42.29;16.78;100236.78;5114831;28;20439;-73
2021/06/21 08:22:13;;;;;;;6.05;2.10;;;;;;;41.36;17.88;100236.22;5132789;27;19974;-75
2021/06/21 08:24:41;;;;;;;;;;;;;;;41.53;18.23;100234.75;5114779;28;20055;-77
2021/06/21 08:27:07;;;;;;;4.18;2.50;;;;;;;41.77;17.52;100226.09;5132901;28;19980;-77
2021/06/21 08:29:33;;;;;;;4.65;2.17;;;;;;;41.06;18.38;100227.44;5133165;28;20484;-80
2021/06/21 08:31:59;;;;;;;3.58;2.10;;;;;;;41.35;17.76;100231.78;5132966;28;20050;-85
2021/06/21 08:34:25;;;;;;;;;;;;;;;41.34;18.36;100227.38;5133042;28;20043;-75
2021/06/21 08:36:51;;;;;;;4.90;2.38;;;;;;;41.28;18.32;100234.16;5132667;28;20364;-75
2021/06/21 08:39:16;;;;;;;;;;;;;;;42.24;17.73;100231.34;5132712;28;20373;-80
2021/06/21 08:41:42;;;;;;;3.67;2.38;;;;;;;42.06;17.27;100224.03;5132523;28;19928;-75
2021/06/21 08:44:08;;;;;;;;;;;;;;;42.62;17.60;100228.13;5118978;28;20095;-78
2021/06/21 08:46:34;;;;;;;5.45;2.47;;;;;;;44.05;16.28;100209.31;5132633;28;19965;-74
2021/06/21 08:49:02;;;;;;;3.00;2.10;;;;;;;43.41;16.31;100211.63;5133353;27;20096;-77
2021/06/21 08:51:28;;;;;;;3.83;2.03;;;;;;;41.94;17.20;100225.44;5131625;28;20043;-78
2021/06/21 08:53:54;;;;;;;6.03;2.10;;;;;;;41.32;18.41;100217.72;5132772;27;20092;-77
2021/06/21 08:56:19;;;;;;;;;;;;;;;41.11;18.57;100220.13;5132970;27;20043;-75
2021/06/21 08:58:45;;;;;;;3.38;1.92;;;;;;;41.49;18.63;100219.84;5132529;28;19919;-78
2021/06/21 09:01:11;;;;;;;;;;;;;;;41.00;18.69;100212.03;5133061;28;20464;-75
2021/06/21 09:03:44;;;;;;;8.35;2.50;;;;;;;40.61;19.15;100218.06;5132506;28;20399;-78
2021/06/21 09:06:23;;;;;;;3.60;2.00;;;;;;;40.89;18.45;100210.56;5132643;27;20125;-76
2021/06/21 09:08:54;;;;;;;6.55;2.20;;;;;;;41.23;18.71;100220.41;5136556;27;20483;-74
2021/06/21 09:11:21;;;;;;;4.38;2.20;;;;;;;41.07;18.70;100223.50;5136251;27;20332;-76
2021/06/21 09:13:47;;;;;;;6.63;2.30;;;;;;;40.69;18.78;100218.19;5134790;27;20046;-75
2021/06/21 09:16:18;;;;;;;3.38;1.63;;;;;;;42.21;17.56;100215.31;5136526;27;20054;-79
2021/06/21 09:18:51;;;;;;;3.63;1.70;;;;;;;41.64;17.97;100213.94;5135837;27;20035;-79
2021/06/21 09:21:32;;;;;;;2.17;1.42;;;;;;;40.58;18.85;100202.88;5136180;27;20039;-75
2021/06/21 09:24:28;;;;;;;4.05;1.70;;;;;;;39.05;20.62;100207.75;5135987;27;20039;-76
2021/06/21 09:26:59;;;;;;;3.22;1.83;;;;;;;38.29;21.47;100211.88;5135555;27;20046;-77
2021/06/21 09:29:37;;;;;;;2.42;1.55;;;;;;;38.51;20.84;100208.59;5135603;27;20053;-77
2021/06/21 09:32:04;;;;;;;3.03;1.80;;;;;;;38.32;20.93;100210.47;5134741;27;20459;-77
2021/06/21 09:34:30;;;;;;;4.30;1.90;;;;;;;38.15;21.20;100205.38;5135686;27;20043;-76
2021/06/21 09:37:07;;;;;;;3.92;1.60;;;;;;;38.10;21.74;100214.50;5135632;27;20072;-77
2021/06/21 09:39:39;;;;;;;4.70;1.55;;;;;;;38.32;21.40;100210.47;5117348;27;20035;-79
2021/06/21 09:42:08;;;;;;;3.17;1.50;;;;;;;37.68;21.31;100213.16;5135793;27;20581;-76
2021/06/21 09:44:39;;;;;;;3.17;1.77;;;;;;;37.91;21.47;100205.28;5135695;27;20093;-75
2021/06/21 09:47:11;;;;;;;3.15;1.58;;;;;;;37.93;21.87;100214.09;5135327;27;20090;-75
2021/06/21 09:49:37;;;;;;;4.30;1.77;;;;;;;37.81;22.12;100215.31;5135516;27;20050;-75
2021/06/21 09:52:03;;;;;;;4.28;1.70;;;;;;;39.02;21.28;100211.09;5135400;27;20051;-75
2021/06/21 09:54:33;;;;;;;5.70;1.75;;;;;;;39.23;21.16;100206.13;5117226;27;20051;-76
2021/06/21 09:57:11;;;;;;;5.78;1.50;;;;;;;39.06;21.82;100207.44;5100195;27;20546;-77
2021/06/21 09:59:46;;;;;;;6.47;1.80;;;;;;;39.14;21.50;100203.19;5113541;28;20048;-77
2021/06/21 10:02:22;;;;;;;3.30;1.40;;;;;;;38.38;22.84;100209.28;5112706;28;20039;-76
2021/06/21 10:04:48;;;;;;;5.45;1.70;;;;;;;37.29;23.19;100200.16;5110455;28;20047;-75
2021/06/21 10:07:36;;;;;;;3.53;1.95;;;;;;;37.49;23.69;100200.03;5114045;28;20480;-75
2021/06/21 10:10:09;;;;;;;4.38;1.73;;;;;;;37.91;22.69;100195.06;5112354;28;20108;-80
2021/06/21 10:12:36;;;;;;;3.00;1.42;;;;;;;38.96;21.83;100183.50;5114630;28;20511;-76
2021/06/21 10:15:04;;;;;;;3.55;1.52;;;;;;;39.27;21.01;100185.88;5114012;28;20044;-77
2021/06/21 10:17:30;;;;;;;5.28;1.50;;;;;;;38.43;21.62;100195.41;5114413;28;20056;-76
2021/06/21 10:19:56;;;;;;;2.00;1.50;;;;;;;38.07;21.22;100192.16;5115017;28;20047;-79
2021/06/21 10:22:24;;;;;;;5.32;1.45;;;;;;;37.73;21.13;100185.50;5113149;28;20040;-77
2021/06/21 10:24:55;;;;;;;5.07;1.33;;;;;;;37.75;21.17;100191.56;5114735;28;20126;-79
2021/06/21 10:27:22;;;;;;;2.28;1.27;;;;;;;36.52;22.33;100188.28;5114346;28;20082;-76
2021/06/21 10:29:48;;;;;;;5.78;1.30;;;;;;;35.66;24.02;100190.78;5114141;28;20059;-78
2021/06/21 10:32:14;;;;;;;;;;;;;;;35.49;23.53;100177.25;5114884;28;20043;-77
2021/06/21 10:34:41;;;;;;;3.50;1.60;;;;;;;35.57;24.02;100184.16;5113360;28;19922;-77
2021/06/21 10:37:15;;;;;;;6.75;1.80;;;;;;;35.81;23.52;100170.69;5114361;28;20533;-77
2021/06/21 10:39:47;;;;;;;5.32;1.75;;;;;;;35.72;23.43;100175.09;5113787;28;20046;-76
2021/06/21 10:42:13;;;;;;;2.13;1.45;;;;;;;35.90;22.97;100171.00;5113884;28;20514;-77
2021/06/21 10:44:58;;;;;;;3.07;1.60;;;;;;;35.49;22.41;100169.00;5113934;28;20047;-79
2021/06/21 10:47:38;;;;;;;5.85;1.88;;;;;;;35.07;23.09;100170.81;5113882;28;20043;-76
2021/06/21 10:50:16;;;;;;;5.55;1.67;;;;;;;35.02;23.59;100169.94;5113912;28;20408;-77
2021/06/21 10:52:48;;;;;;;5.63;1.50;;;;;;;35.26;22.94;100162.88;5114011;28;20044;-76
2021/06/21 10:55:26;;;;;;;1.67;1.40;;;;;;;34.75;23.71;100157.19;5113943;28;20043;-77
2021/06/21 10:57:54;;;;;;;1.73;1.00;;;;;;;34.74;22.24;100155.53;5113872;28;20043;-79
2021/06/21 11:00:22;;;;;;;6.68;1.30;;;;;;;35.27;21.96;100158.22;5127230;27;20066;-79
2021/06/21 11:02:48;;;;;;;2.55;1.20;;;;;;;35.00;23.07;100156.47;5133041;27;20042;-75
2021/06/21 11:05:34;;;;;;;3.07;1.23;;;;;;;35.10;23.46;100158.44;5133024;27;20043;-78
2021/06/21 11:08:16;;;;;;;4.85;1.50;;;;;;;34.86;23.52;100158.03;5134649;27;20578;-76
2021/06/21 11:10:43;;;;;;;2.00;1.58;;;;;;;35.09;23.79;100157.63;5134017;27;20078;-76
2021/06/21 11:13:44;;;;;;;;;;;;;;;35.35;23.66;100151.34;5134291;27;20535;-77
2021/06/21 11:16:23;;;;;;;4.38;1.77;;;;;;;34.98;24.24;100150.41;5090417;28;19959;-75
2021/06/21 11:19:10;;;;;;;4.38;1.50;;;;;;;34.41;25.04;100146.56;5090767;28;20522;-77
2021/06/21 11:21:46;;;;;;;4.97;1.75;;;;;;;33.71;25.85;100159.19;5090335;28;20068;-77
2021/06/21 11:24:35;;;;;;;7.07;1.58;;;;;;;33.70;25.63;100152.03;5090201;28;20125;-75
2021/06/21 11:27:12;;;;;;;6.43;1.85;;;;;;;33.73;26.63;100147.13;5090232;28;20504;-77
2021/06/21 11:29:53;;;;;;;3.55;1.60;;;;;;;33.33;26.33;100149.22;5072559;28;20460;-74
2021/06/21 11:32:20;;;;;;;4.47;1.48;;;;;;;32.84;26.75;100152.75;5090058;28;20189;-77
2021/06/21 11:34:57;;;;;;;3.05;1.70;;;;;;;32.58;26.77;100150.47;5090487;28;20044;-78
2021/06/21 11:37:59;;;;;;;2.88;1.77;;;;;;;32.45;27.15;100155.47;5090058;28;20477;-80